Time;durP1;ratioP1;P1;durP2;ratioP2;P2;SDS_P1;SDS_P2;PMS_P1;PMS_P2;Temp;Humidity;BMP_temperature;BMP_pressure;BME280_temperature;BME280_humidity;BME280_pressure;Samples;Min_cycle;Max_cycle;Signal;HPM_P1;HPM_P2
2023/09/27 00:00:12;;;;;;;6.53;4.95;;;13.90;99.90;;;;;;4192999;28;20102;-59
2023/09/27 00:02:13;;;;;;;7.15;4.40;;;13.90;99.90;;;;;;4192842;28;20032;-60
2023/09/27 00:04:14;;;;;;;7.18;4.43;;;13.90;99.90;;;;;;4194132;28;20528;-60
2023/09/27 00:06:15;;;;;;;8.40;4.60;;;13.90;99.90;;;;;;4192599;28;20435;-59
2023/09/27 00:08:16;;;;;;;11.10;4.68;;;13.90;99.90;;;;;;4192475;28;20033;-58
2023/09/27 00:10:18;;;;;;;9.70;5.22;;;13.90;99.90;;;;;;4192227;28;20466;-58
2023/09/27 00:12:20;;;;;;;8.98;4.43;;;13.90;99.90;;;;;;4192057;28;20094;-60
2023/09/27 00:14:22;;;;;;;5.85;4.22;;;13.90;99.90;;;;;;4192294;28;21063;-59
2023/09/27 00:16:23;;;;;;;7.30;4.68;;;13.80;99.90;;;;;;4192160;28;20036;-59
2023/09/27 00:18:24;;;;;;;7.85;4.63;;;13.80;99.90;;;;;;4193570;28;20097;-59
2023/09/27 00:20:25;;;;;;;6.07;4.35;;;13.80;99.90;;;;;;4192335;28;20052;-59
2023/09/27 00:22:27;;;;;;;6.95;4.22;;;13.80;99.90;;;;;;4193885;28;20186;-58
2023/09/27 00:24:28;;;;;;;4.95;4.25;;;13.80;99.90;;;;;;4191526;28;20052;-59
2023/09/27 00:26:29;;;;;;;9.02;4.65;;;13.80;99.90;;;;;;4193442;28;20041;-60
2023/09/27 00:28:30;;;;;;;6.35;4.05;;;13.80;99.90;;;;;;4191433;28;20024;-59
2023/09/27 00:30:31;;;;;;;6.50;3.65;;;13.80;99.90;;;;;;4194064;28;20106;-59
2023/09/27 00:32:33;;;;;;;9.82;4.47;;;13.80;99.90;;;;;;4192969;28;20106;-59
2023/09/27 00:34:35;;;;;;;5.35;3.75;;;13.70;99.90;;;;;;4193938;28;20089;-59
2023/09/27 00:36:36;;;;;;;8.50;4.47;;;13.70;99.90;;;;;;4191668;28;20048;-59
2023/09/27 00:38:37;;;;;;;6.60;4.05;;;13.70;99.90;;;;;;4193020;28;20032;-59
2023/09/27 00:40:45;;;;;;;6.38;4.35;;;13.60;99.90;;;;;;4194510;28;20028;-54
2023/09/27 00:42:47;;;;;;;11.05;4.30;;;13.60;99.90;;;;;;4196112;28;20090;-60
2023/09/27 00:44:48;;;;;;;8.45;4.00;;;13.60;99.90;;;;;;4195664;28;20099;-62
2023/09/27 00:46:51;;;;;;;9.57;5.10;;;13.50;99.90;;;;;;4178228;28;20057;-63
2023/09/27 00:48:53;;;;;;;8.70;4.60;;;13.50;99.90;;;;;;4195698;28;20040;-58
2023/09/27 00:50:55;;;;;;;7.43;4.05;;;13.40;99.90;;;;;;4196239;28;20017;-59
2023/09/27 00:52:56;;;;;;;7.70;4.93;;;13.40;99.90;;;;;;4196602;28;20032;-60
2023/09/27 00:54:58;;;;;;;14.07;5.10;;;13.40;99.90;;;;;;4194821;28;20407;-62
2023/09/27 00:57:01;;;;;;;9.18;4.53;;;13.40;99.90;;;;;;4195921;28;20033;-60
2023/09/27 00:59:03;;;;;;;10.03;4.87;;;13.40;99.90;;;;;;4195560;28;20033;-57
2023/09/27 01:01:05;;;;;;;6.57;4.03;;;13.30;99.90;;;;;;4196247;28;20037;-61
2023/09/27 01:03:06;;;;;;;7.77;4.60;;;13.40;99.90;;;;;;4194583;28;20044;-61
2023/09/27 01:05:11;;;;;;;7.35;4.55;;;13.40;99.90;;;;;;4195850;28;20447;-58
2023/09/27 01:07:12;;;;;;;8.90;4.55;;;13.40;99.90;;;;;;4195527;28;20554;-58
2023/09/27 01:09:13;;;;;;;9.00;4.78;;;13.40;99.90;;;;;;4196416;28;20562;-59
2023/09/27 01:11:16;;;;;;;10.63;5.07;;;13.40;99.90;;;;;;4195368;28;20578;-60
2023/09/27 01:13:18;;;;;;;14.30;5.43;;;13.40;99.90;;;;;;4195181;28;20381;-59
2023/09/27 01:15:19;;;;;;;12.18;4.95;;;13.40;99.90;;;;;;4194606;28;20017;-62
2023/09/27 01:17:20;;;;;;;9.45;4.53;;;13.40;99.90;;;;;;4195384;28;20086;-62
2023/09/27 01:19:22;;;;;;;9.90;4.73;;;13.40;99.90;;;;;;4195940;28;20074;-58
2023/09/27 01:21:23;;;;;;;6.10;4.57;;;13.40;99.90;;;;;;4195879;28;20453;-64
2023/09/27 01:23:24;;;;;;;13.63;5.07;;;13.40;99.90;;;;;;4195725;28;20082;-62
2023/09/27 01:25:28;;;;;;;7.27;4.57;;;13.40;99.90;;;;;;4195382;28;20090;-61
2023/09/27 01:27:29;;;;;;;11.67;3.90;;;13.40;99.90;;;;;;4195955;28;20032;-60
2023/09/27 01:29:30;;;;;;;6.23;4.00;;;13.40;99.90;;;;;;4194329;28;20048;-61
2023/09/27 01:31:32;;;;;;;7.40;4.27;;;13.40;99.90;;;;;;4195249;28;20443;-59
2023/09/27 01:33:33;;;;;;;6.20;4.67;;;13.40;99.90;;;;;;4195331;28;20021;-61
2023/09/27 01:35:37;;;;;;;6.53;4.60;;;13.30;99.90;;;;;;4196299;28;20032;-58
2023/09/27 01:37:38;;;;;;;8.67;4.00;;;13.30;99.90;;;;;;4194635;28;20044;-62
2023/09/27 01:39:39;;;;;;;8.80;4.50;;;13.30;99.90;;;;;;4196239;28;20028;-62
2023/09/27 01:41:41;;;;;;;7.70;4.37;;;13.30;99.90;;;;;;4194735;28;20032;-61
2023/09/27 01:43:42;;;;;;;7.70;4.33;;;13.20;99.90;;;;;;4196485;28;20335;-59
2023/09/27 01:45:44;;;;;;;8.43;4.57;;;13.20;99.90;;;;;;4177168;28;20091;-59
2023/09/27 01:47:45;;;;;;;10.33;4.33;;;13.20;99.90;;;;;;4195967;28;20102;-60
2023/09/27 01:49:46;;;;;;;8.93;4.10;;;13.20;99.90;;;;;;4193900;28;20581;-60
2023/09/27 01:51:49;;;;;;;8.73;4.00;;;13.20;99.90;;;;;;4194424;28;20041;-62
2023/09/27 01:53:50;;;;;;;8.43;4.57;;;13.20;99.90;;;;;;4195307;28;20082;-60
2023/09/27 01:55:51;;;;;;;9.53;4.40;;;13.20;99.90;;;;;;4195393;28;20939;-63
2023/09/27 01:57:53;;;;;;;9.90;4.20;;;13.10;99.90;;;;;;4195766;28;20433;-62
2023/09/27 01:59:54;;;;;;;7.03;4.60;;;13.10;99.90;;;;;;4194107;28;20074;-62
2023/09/27 02:01:55;;;;;;;9.30;4.67;;;13.10;99.90;;;;;;4195862;28;20028;-62
2023/09/27 02:03:56;;;;;;;7.00;4.53;;;13.10;99.90;;;;;;4193649;28;20044;-61
2023/09/27 02:05:57;;;;;;;6.80;4.00;;;13.00;99.90;;;;;;4195968;28;20066;-62
2023/09/27 02:07:59;;;;;;;8.23;4.27;;;12.90;99.90;;;;;;4194634;28;20036;-61
2023/09/27 02:10:00;;;;;;;5.77;3.83;;;12.90;99.90;;;;;;4194674;28;20099;-57
2023/09/27 02:12:01;;;;;;;7.03;3.80;;;12.90;99.90;;;;;;4193419;28;20126;-59
2023/09/27 02:14:04;;;;;;;8.20;4.30;;;12.90;99.90;;;;;;4194780;28;20085;-59
2023/09/27 02:16:05;;;;;;;7.87;4.13;;;12.80;99.90;;;;;;4194357;28;20024;-60
2023/09/27 02:18:06;;;;;;;9.70;4.70;;;12.90;99.90;;;;;;4195133;28;20514;-62
2023/09/27 02:20:12;;;;;;;8.40;3.93;;;12.90;99.90;;;;;;4192741;28;20140;-58
2023/09/27 02:22:14;;;;;;;9.07;3.90;;;12.90;99.90;;;;;;4193808;28;20125;-59
2023/09/27 02:24:16;;;;;;;6.50;3.70;;;12.80;99.90;;;;;;4193784;28;20496;-59
2023/09/27 02:26:17;;;;;;;8.07;4.33;;;12.90;99.90;;;;;;4176603;28;20501;-60
2023/09/27 02:28:18;;;;;;;10.00;4.43;;;12.80;99.90;;;;;;4193894;28;20097;-59
2023/09/27 02:30:19;;;;;;;9.40;4.47;;;12.80;99.90;;;;;;4194168;28;20040;-61
2023/09/27 02:32:21;;;;;;;7.13;4.30;;;12.80;99.90;;;;;;4195136;28;20094;-60
2023/09/27 02:34:22;;;;;;;9.07;4.67;;;12.80;99.90;;;;;;4193349;28;20091;-60
2023/09/27 02:36:23;;;;;;;9.93;4.40;;;12.70;99.90;;;;;;4195325;28;20024;-59
2023/09/27 02:38:25;;;;;;;10.60;5.03;;;12.70;99.90;;;;;;4194012;28;20098;-59
2023/09/27 02:40:27;;;;;;;10.60;4.30;;;12.70;99.90;;;;;;4194800;28;20045;-60
2023/09/27 02:42:28;;;;;;;9.60;5.43;;;12.60;99.90;;;;;;4194121;28;20426;-60
2023/09/27 02:44:29;;;;;;;6.83;4.60;;;12.50;99.90;;;;;;4194013;28;20044;-59
2023/09/27 02:46:30;;;;;;;9.60;4.77;;;12.50;99.90;;;;;;4194571;28;20077;-59
2023/09/27 02:48:31;;;;;;;10.80;4.60;;;12.50;99.90;;;;;;4193972;28;20378;-60
2023/09/27 02:50:32;;;;;;;10.57;4.80;;;12.40;99.90;;;;;;4192953;28;20094;-59
2023/09/27 02:52:33;;;;;;;7.33;4.77;;;12.40;99.90;;;;;;4194766;28;20032;-60
2023/09/27 02:54:35;;;;;;;6.37;4.67;;;12.40;99.90;;;;;;4193186;28;20074;-59
2023/09/27 02:56:36;;;;;;;6.53;4.27;;;12.40;99.90;;;;;;4193227;28;20036;-61
2023/09/27 02:58:37;;;;;;;6.70;5.17;;;12.40;99.90;;;;;;4193479;28;20028;-60
2023/09/27 03:00:40;;;;;;;8.20;5.03;;;12.40;99.90;;;;;;4192882;28;20113;-59
2023/09/27 03:02:42;;;;;;;7.80;3.80;;;12.40;99.90;;;;;;4192706;28;20086;-59
2023/09/27 03:04:43;;;;;;;12.87;5.30;;;12.40;99.90;;;;;;4192564;28;20049;-60
2023/09/27 03:06:45;;;;;;;7.77;5.40;;;12.40;99.90;;;;;;4193745;28;20086;-58
2023/09/27 03:08:48;;;;;;;8.23;4.77;;;12.40;99.90;;;;;;4193454;28;20078;-59
2023/09/27 03:10:49;;;;;;;10.67;4.87;;;12.40;99.90;;;;;;4193147;28;20554;-59
2023/09/27 03:12:51;;;;;;;9.43;4.23;;;12.40;99.90;;;;;;4192357;28;20094;-58
2023/09/27 03:14:52;;;;;;;8.37;4.70;;;12.40;99.90;;;;;;4193297;28;20547;-59
2023/09/27 03:16:53;;;;;;;11.67;5.00;;;12.40;99.90;;;;;;4193825;28;20086;-59
2023/09/27 03:18:55;;;;;;;6.90;4.27;;;12.40;99.90;;;;;;4194744;28;20040;-59
2023/09/27 03:20:57;;;;;;;9.57;4.27;;;12.30;99.90;;;;;;4192703;28;20041;-59
2023/09/27 03:22:58;;;;;;;9.03;4.63;;;12.30;99.90;;;;;;4187967;28;20111;-58
2023/09/27 03:25:00;;;;;;;8.43;4.70;;;12.30;99.90;;;;;;4192114;28;20416;-59
2023/09/27 03:27:04;;;;;;;10.80;4.30;;;12.20;99.90;;;;;;4191225;28;20036;-59
2023/09/27 03:29:05;;;;;;;9.83;4.73;;;12.20;99.90;;;;;;4193340;28;20036;-58
2023/09/27 03:31:06;;;;;;;11.03;4.73;;;12.20;99.90;;;;;;4192674;28;20078;-58
2023/09/27 03:33:07;;;;;;;11.27;4.87;;;12.10;99.90;;;;;;4193966;28;20028;-58
2023/09/27 03:35:09;;;;;;;9.23;5.03;;;12.10;99.90;;;;;;4191498;28;20036;-59
2023/09/27 03:37:10;;;;;;;9.70;5.20;;;12.10;99.90;;;;;;4194133;28;20530;-59
2023/09/27 03:39:11;;;;;;;8.97;5.07;;;12.10;99.90;;;;;;4193222;28;20028;-60
2023/09/27 03:41:12;;;;;;;9.60;5.73;;;12.10;99.90;;;;;;4193291;28;20439;-58
2023/09/27 03:43:14;;;;;;;11.67;5.50;;;12.10;99.90;;;;;;4192360;28;20041;-60
2023/09/27 03:45:15;;;;;;;8.67;5.17;;;12.00;99.90;;;;;;4192970;28;20049;-60
2023/09/27 03:47:17;;;;;;;10.90;4.77;;;11.90;99.90;;;;;;4192117;28;20036;-62
2023/09/27 03:49:18;;;;;;;10.43;5.27;;;11.90;99.90;;;;;;4193558;28;20028;-60
2023/09/27 03:51:25;;;;;;;9.30;5.37;;;11.90;99.90;;;;;;4192173;28;20033;-58
2023/09/27 03:53:27;;;;;;;7.73;4.70;;;11.90;99.90;;;;;;4194280;28;20628;-59
2023/09/27 03:55:28;;;;;;;16.70;5.50;;;11.90;99.90;;;;;;4193077;28;20074;-59
2023/09/27 03:57:29;;;;;;;6.70;4.83;;;11.90;99.90;;;;;;4192858;28;20048;-60
2023/09/27 03:59:30;;;;;;;6.80;4.37;;;11.90;99.90;;;;;;4193022;28;20530;-63
2023/09/27 04:01:31;;;;;;;6.40;4.93;;;11.90;99.90;;;;;;4192809;28;20028;-60
2023/09/27 04:03:32;;;;;;;7.83;5.00;;;11.90;99.90;;;;;;4193417;28;20457;-62
2023/09/27 04:05:34;;;;;;;11.47;5.07;;;11.90;99.90;;;;;;4192504;28;20063;-63
2023/09/27 04:07:36;;;;;;;10.53;5.03;;;12.00;99.90;;;;;;4193797;28;20048;-62
2023/09/27 04:09:37;;;;;;;7.60;4.80;;;12.00;99.90;;;;;;4192900;28;20086;-61
2023/09/27 04:11:39;;;;;;;11.60;4.77;;;12.00;99.90;;;;;;4193143;28;20590;-63
2023/09/27 04:13:40;;;;;;;6.83;4.30;;;12.00;99.90;;;;;;4193292;28;20086;-62
2023/09/27 04:15:41;;;;;;;11.17;5.30;;;12.00;99.90;;;;;;4197554;28;20082;-62
2023/09/27 04:17:42;;;;;;;7.43;5.00;;;12.00;99.90;;;;;;4195460;28;20102;-62
2023/09/27 04:19:44;;;;;;;9.00;5.20;;;12.00;99.90;;;;;;4197102;28;20024;-62
2023/09/27 04:21:45;;;;;;;12.00;5.10;;;12.00;99.90;;;;;;4196037;28;20028;-63
2023/09/27 04:23:56;;;;;;;11.93;5.10;;;12.00;99.90;;;;;;4196241;28;20024;-62
2023/09/27 04:25:58;;;;;;;11.80;5.33;;;12.00;99.90;;;;;;4194815;28;20075;-63
2023/09/27 04:27:59;;;;;;;9.67;5.13;;;12.00;99.90;;;;;;4197187;28;20442;-60
2023/09/27 04:30:00;;;;;;;10.13;5.07;;;12.00;99.90;;;;;;4177366;28;20045;-62
2023/09/27 04:32:01;;;;;;;8.13;5.10;;;12.00;99.90;;;;;;4196615;28;20110;-62
2023/09/27 04:34:03;;;;;;;11.83;6.10;;;12.00;99.90;;;;;;4194876;28;20086;-62
2023/09/27 04:36:04;;;;;;;8.27;5.33;;;12.00;99.90;;;;;;4185535;28;20040;-61
2023/09/27 04:38:05;;;;;;;8.63;5.70;;;12.00;99.90;;;;;;4194202;28;20044;-56
2023/09/27 04:40:11;;;;;;;7.63;5.10;;;12.20;99.90;;;;;;4195111;28;20045;-63
2023/09/27 04:42:12;;;;;;;13.70;6.43;;;12.30;99.90;;;;;;4178301;28;20124;-62
2023/09/27 04:44:13;;;;;;;10.00;5.70;;;12.40;99.90;;;;;;4194176;28;20081;-61
2023/09/27 04:46:18;;;;;;;12.27;5.90;;;12.60;99.90;;;;;;4196097;28;20114;-57
2023/09/27 04:48:20;;;;;;;12.47;6.27;;;12.80;99.90;;;;;;4194547;28;20071;-58
2023/09/27 04:50:21;;;;;;;7.10;5.07;;;13.00;99.90;;;;;;4195133;28;20090;-61
2023/09/27 04:52:22;;;;;;;8.87;4.70;;;13.20;99.90;;;;;;4193748;28;20632;-64
2023/09/27 04:54:23;;;;;;;14.27;5.57;;;13.40;99.90;;;;;;4196617;28;20546;-61
2023/09/27 04:56:24;;;;;;;17.67;6.20;;;13.70;99.90;;;;;;4195108;28;20040;-62
2023/09/27 04:58:26;;;;;;;8.93;4.90;;;14.00;99.90;;;;;;4196730;28;20078;-61
2023/09/27 05:00:27;;;;;;;16.40;5.25;;;14.20;99.90;;;;;;4195641;28;20016;-62
2023/09/27 05:02:28;;;;;;;11.73;4.90;;;14.50;99.90;;;;;;4196603;28;20033;-64
2023/09/27 05:04:29;;;;;;;10.70;4.90;;;14.70;99.90;;;;;;4195872;28;20025;-63
2023/09/27 05:06:30;;;;;;;12.10;5.07;;;14.90;99.90;;;;;;4195853;28;20086;-62
2023/09/27 05:08:31;;;;;;;10.38;5.10;;;15.20;99.90;;;;;;4195833;28;20550;-63
2023/09/27 05:10:32;;;;;;;10.10;4.50;;;15.50;99.90;;;;;;4194716;28;20040;-64
2023/09/27 05:12:35;;;;;;;8.70;4.35;;;15.70;99.90;;;;;;4194714;28;20056;-62
2023/09/27 05:14:36;;;;;;;6.68;3.92;;;15.70;99.90;;;;;;4194524;28;20041;-63
2023/09/27 05:16:37;;;;;;;8.45;4.95;;;16.00;99.90;;;;;;4195999;28;20385;-63
2023/09/27 05:18:38;;;;;;;8.10;4.47;;;16.20;99.90;;;;;;4194473;28;20134;-63
2023/09/27 05:20:39;;;;;;;8.45;4.18;;;16.50;99.90;;;;;;4195389;28;20078;-59
2023/09/27 05:22:41;;;;;;;9.27;3.78;;;17.00;99.90;;;;;;4194228;28;20427;-64
2023/09/27 05:24:43;;;;;;;7.38;4.63;;;17.40;99.90;;;;;;4194840;28;20063;-64
2023/09/27 05:26:44;;;;;;;7.18;3.97;;;17.80;99.90;;;;;;4175991;28;20482;-64
2023/09/27 05:28:45;;;;;;;5.95;4.03;;;18.30;99.90;;;;;;4195329;28;20044;-61
2023/09/27 05:30:46;;;;;;;9.35;3.78;;;18.70;99.90;;;;;;4194010;28;20036;-61
2023/09/27 05:32:47;;;;;;;8.38;3.75;;;18.90;99.90;;;;;;4177475;28;20467;-59
2023/09/27 05:34:50;;;;;;;10.65;4.13;;;19.20;99.90;;;;;;4194085;28;20458;-60
2023/09/27 05:36:51;;;;;;;10.02;3.83;;;19.70;99.90;;;;;;4195655;28;20066;-59
2023/09/27 05:38:53;;;;;;;5.55;3.63;;;20.10;99.90;;;;;;4195074;28;20029;-60
2023/09/27 05:40:54;;;;;;;6.63;4.00;;;20.40;99.90;;;;;;4194430;28;20446;-59
2023/09/27 05:42:55;;;;;;;8.50;3.88;;;20.50;99.90;;;;;;4194245;28;20078;-61
2023/09/27 05:44:56;;;;;;;6.13;4.45;;;20.60;99.90;;;;;;4194497;28;20037;-62
2023/09/27 05:46:57;;;;;;;11.38;3.80;;;21.00;99.90;;;;;;4195217;28;20086;-62
2023/09/27 05:49:01;;;;;;;8.80;3.60;;;21.20;99.90;;;;;;4193363;28;20060;-61
2023/09/27 05:51:02;;;;;;;7.75;3.28;;;21.60;99.90;;;;;;4194925;28;20044;-59
2023/09/27 05:53:03;;;;;;;12.52;4.65;;;21.90;99.90;;;;;;4193659;28;20559;-60
2023/09/27 05:55:05;;;;;;;9.77;3.67;;;22.20;99.90;;;;;;4196071;28;20041;-61
2023/09/27 05:57:07;;;;;;;10.75;3.83;;;22.60;99.90;;;;;;4194100;28;20041;-63
2023/09/27 05:59:12;;;;;;;9.43;3.90;;;22.90;99.90;;;;;;4195644;28;20032;-62
2023/09/27 06:01:19;;;;;;;8.10;3.92;;;23.20;99.90;;;;;;4194369;28;20082;-60
2023/09/27 06:03:20;;;;;;;11.13;3.65;;;23.00;99.90;;;;;;4195573;28;20035;-63
2023/09/27 06:05:21;;;;;;;9.07;3.45;;;23.00;99.80;;;;;;4175784;28;20142;-63
2023/09/27 06:07:22;;;;;;;6.82;3.40;;;22.90;99.60;;;;;;4195460;28;20098;-60
2023/09/27 06:09:24;;;;;;;7.45;3.17;;;22.40;99.40;;;;;;4193255;28;20040;-61
2023/09/27 06:11:25;;;;;;;11.48;3.72;;;22.30;99.60;;;;;;4194945;28;20028;-64
2023/09/27 06:13:27;;;;;;;5.43;4.03;;;22.10;99.30;;;;;;4193830;28;20327;-60
2023/09/27 06:15:32;;;;;;;10.18;4.00;;;22.00;99.10;;;;;;4194559;28;20025;-59
2023/09/27 06:17:34;;;;;;;6.90;3.95;;;21.70;99.00;;;;;;4194476;28;20502;-59
2023/09/27 06:19:35;;;;;;;9.40;3.88;;;21.60;99.20;;;;;;4193102;28;20028;-60
2023/09/27 06:21:36;;;;;;;18.58;4.35;;;21.90;99.10;;;;;;4195025;28;20109;-62
2023/09/27 06:23:37;;;;;;;8.00;3.00;;;22.30;98.70;;;;;;4193770;28;20431;-58
2023/09/27 06:25:43;;;;;;;9.27;3.58;;;22.70;98.20;;;;;;4194499;28;20044;-63
2023/09/27 06:27:44;;;;;;;5.13;3.33;;;22.80;97.80;;;;;;4193705;28;20020;-59
2023/09/27 06:29:46;;;;;;;7.97;4.00;;;22.80;97.60;;;;;;4193928;28;20040;-59
2023/09/27 06:31:52;;;;;;;6.03;3.70;;;22.80;97.40;;;;;;4192940;28;20420;-60
2023/09/27 06:33:53;;;;;;;10.63;4.15;;;22.10;97.70;;;;;;4193765;28;20102;-61
2023/09/27 06:35:59;;;;;;;11.65;3.80;;;22.10;98.10;;;;;;4192908;28;20424;-58
2023/09/27 06:38:00;;;;;;;10.30;3.92;;;22.70;97.90;;;;;;4194802;28;20021;-59
2023/09/27 06:40:02;;;;;;;11.48;4.30;;;23.30;97.30;;;;;;4192959;28;20464;-60
2023/09/27 06:42:06;;;;;;;8.18;3.47;;;23.70;96.80;;;;;;4194899;28;20029;-60
2023/09/27 06:44:07;;;;;;;7.22;3.65;;;24.20;96.40;;;;;;4193168;28;20029;-60
2023/09/27 06:46:10;;;;;;;6.45;3.50;;;24.50;95.90;;;;;;4194515;28;20055;-59
2023/09/27 06:48:11;;;;;;;9.93;3.72;;;24.60;95.50;;;;;;4193649;28;20071;-59
2023/09/27 06:50:14;;;;;;;7.38;4.00;;;24.90;95.40;;;;;;4193049;28;20089;-59
2023/09/27 06:52:15;;;;;;;8.68;3.55;;;25.00;95.00;;;;;;4193389;28;20457;-64
2023/09/27 06:54:16;;;;;;;8.23;3.92;;;25.00;94.70;;;;;;4192579;28;20041;-58
2023/09/27 06:56:17;;;;;;;14.75;4.07;;;24.60;94.60;;;;;;4194530;28;20082;-59
2023/09/27 06:58:23;;;;;;;7.43;4.10;;;24.20;95.00;;;;;;4193514;28;20153;-63
2023/09/27 07:00:24;;;;;;;11.88;4.13;;;24.20;95.10;;;;;;4194005;28;20090;-59
2023/09/27 07:02:25;;;;;;;7.55;3.95;;;24.20;95.20;;;;;;4192738;28;20033;-59
2023/09/27 07:04:27;;;;;;;11.23;3.90;;;24.30;95.00;;;;;;4194658;28;20036;-62
2023/09/27 07:06:28;;;;;;;8.88;3.33;;;24.30;94.70;;;;;;4193325;28;20017;-58
2023/09/27 07:08:30;;;;;;;9.20;3.40;;;24.30;94.60;;;;;;4193128;28;20078;-59
2023/09/27 07:10:31;;;;;;;14.73;3.30;;;24.50;94.50;;;;;;4192533;28;20103;-59
2023/09/27 07:12:33;;;;;;;8.23;3.58;;;24.90;94.20;;;;;;4193532;28;20089;-59
2023/09/27 07:14:36;;;;;;;11.57;3.78;;;24.90;93.80;;;;;;4192154;28;20086;-63
2023/09/27 07:16:37;;;;;;;5.90;4.03;;;24.60;93.90;;;;;;4194334;28;20376;-60
2023/09/27 07:18:38;;;;;;;8.57;3.30;;;24.30;94.10;;;;;;4193187;28;20032;-60
2023/09/27 07:20:40;;;;;;;9.77;3.78;;;24.60;93.80;;;;;;4193063;28;20102;-58
2023/09/27 07:22:42;;;;;;;5.22;3.47;;;24.50;93.60;;;;;;4193579;28;20024;-61
2023/09/27 07:24:43;;;;;;;6.45;3.50;;;24.70;93.70;;;;;;4192523;28;20052;-58
2023/09/27 07:26:46;;;;;;;8.25;3.35;;;24.70;93.40;;;;;;4193349;28;20044;-58
2023/09/27 07:28:47;;;;;;;12.30;3.83;;;24.60;93.40;;;;;;4192943;28;20089;-59
2023/09/27 07:30:49;;;;;;;11.95;3.88;;;24.80;93.30;;;;;;4193157;28;20493;-59
2023/09/27 07:32:51;;;;;;;7.15;3.90;;;25.00;93.00;;;;;;4192882;28;20040;-59
2023/09/27 07:34:52;;;;;;;7.13;4.25;;;25.10;92.80;;;;;;4193500;28;20044;-60
2023/09/27 07:36:54;;;;;;;8.82;4.05;;;24.70;92.70;;;;;;4192751;28;20447;-60
2023/09/27 07:38:59;;;;;;;7.18;4.15;;;24.40;93.00;;;;;;4193305;28;20105;-60
2023/09/27 07:41:00;;;;;;;19.42;4.40;;;24.40;93.20;;;;;;4192540;28;20040;-60
2023/09/27 07:43:01;;;;;;;10.95;4.40;;;24.20;92.90;;;;;;4192869;28;20036;-61
2023/09/27 07:45:04;;;;;;;10.57;3.85;;;24.00;93.00;;;;;;4191596;28;20546;-58
2023/09/27 07:47:06;;;;;;;11.15;4.85;;;23.60;93.20;;;;;;4194374;28;20078;-58
2023/09/27 07:49:08;;;;;;;13.73;4.72;;;23.60;93.40;;;;;;4191687;28;20082;-59
2023/09/27 07:51:13;;;;;;;11.15;4.28;;;23.10;93.80;;;;;;4193870;28;20081;-59
2023/09/27 07:53:14;;;;;;;14.73;4.30;;;22.70;94.10;;;;;;4192623;28;20033;-61
2023/09/27 07:55:17;;;;;;;13.05;4.07;;;22.50;94.40;;;;;;4192749;28;20082;-59
2023/09/27 07:57:19;;;;;;;10.20;3.72;;;22.20;94.40;;;;;;4193313;28;20153;-60
2023/09/27 07:59:20;;;;;;;10.30;4.43;;;22.00;94.70;;;;;;4192591;28;20044;-59
2023/09/27 08:01:22;;;;;;;8.85;4.03;;;22.00;95.00;;;;;;4192406;28;20036;-59
2023/09/27 08:03:23;;;;;;;8.88;3.97;;;22.00;95.00;;;;;;4174601;28;20315;-60
2023/09/27 08:05:25;;;;;;;6.85;4.00;;;22.20;95.20;;;;;;4192985;28;20389;-60
2023/09/27 08:07:26;;;;;;;9.60;6.03;;;22.40;94.90;;;;;;4191625;28;20781;-60
2023/09/27 08:09:28;;;;;;;7.18;3.25;;;22.60;94.80;;;;;;4192918;28;20053;-61
2023/09/27 08:11:29;;;;;;;11.75;4.45;;;22.90;94.40;;;;;;4192568;28;20111;-61
2023/09/27 08:13:31;;;;;;;10.45;3.78;;;22.80;94.40;;;;;;4175880;28;20021;-59
2023/09/27 08:15:33;;;;;;;9.43;3.50;;;22.90;94.30;;;;;;4191606;28;20037;-60
2023/09/27 08:17:35;;;;;;;6.82;3.85;;;22.90;94.20;;;;;;4192957;28;20110;-61
2023/09/27 08:19:38;;;;;;;9.82;4.03;;;22.80;93.80;;;;;;4191607;28;20087;-59
2023/09/27 08:21:39;;;;;;;10.20;4.10;;;22.90;93.40;;;;;;4193114;28;20106;-60
2023/09/27 08:23:41;;;;;;;10.38;3.70;;;22.90;93.40;;;;;;4192431;28;20025;-59
2023/09/27 08:25:42;;;;;;;5.78;3.50;;;23.00;93.40;;;;;;4192240;28;20045;-59
2023/09/27 08:27:44;;;;;;;6.50;3.55;;;23.00;92.70;;;;;;4192576;28;20101;-60
2023/09/27 08:29:45;;;;;;;13.18;3.35;;;23.10;92.40;;;;;;4192837;28;20396;-59
2023/09/27 08:31:46;;;;;;;11.20;3.65;;;23.10;92.40;;;;;;4191815;28;20550;-59
2023/09/27 08:33:48;;;;;;;9.02;3.28;;;23.20;92.40;;;;;;4191630;28;20526;-59
2023/09/27 08:35:53;;;;;;;7.18;3.78;;;23.30;92.10;;;;;;4192463;28;20485;-59
2023/09/27 08:37:54;;;;;;;10.75;3.50;;;23.60;91.80;;;;;;4191359;28;20037;-59
2023/09/27 08:39:55;;;;;;;7.22;3.05;;;23.80;91.60;;;;;;4192445;28;20481;-59
2023/09/27 08:41:58;;;;;;;6.43;3.08;;;24.20;91.50;;;;;;4191458;28;20071;-59
2023/09/27 08:44:00;;;;;;;6.72;2.95;;;24.00;90.80;;;;;;4192461;28;20045;-59
2023/09/27 08:46:03;;;;;;;6.70;3.40;;;23.50;91.10;;;;;;4191779;28;20097;-56
2023/09/27 08:48:08;;;;;;;11.93;3.38;;;23.30;91.20;;;;;;4192946;28;20041;-59
2023/09/27 08:50:13;;;;;;;8.95;3.35;;;23.10;91.40;;;;;;4192286;28;20106;-60
2023/09/27 08:52:15;;;;;;;10.52;3.40;;;23.10;91.70;;;;;;4192717;28;20104;-60
2023/09/27 08:54:18;;;;;;;12.32;3.53;;;23.10;91.90;;;;;;4192251;28;20078;-60
2023/09/27 08:56:20;;;;;;;8.80;3.00;;;23.30;91.90;;;;;;4192549;28;20040;-61
2023/09/27 08:58:25;;;;;;;9.02;3.35;;;23.40;91.80;;;;;;4192475;28;20419;-56
2023/09/27 09:00:26;;;;;;;12.60;3.97;;;23.50;91.60;;;;;;4193545;28;20114;-60
2023/09/27 09:02:28;;;;;;;8.10;3.65;;;23.60;91.60;;;;;;4195706;28;20017;-59
2023/09/27 09:04:31;;;;;;;5.50;3.63;;;23.80;91.60;;;;;;4195034;28;20081;-58
2023/09/27 09:06:32;;;;;;;12.00;3.78;;;24.00;91.50;;;;;;4194737;28;20101;-59
2023/09/27 09:08:39;;;;;;;18.67;4.72;;;23.90;91.50;;;;;;4194572;28;20036;-62
2023/09/27 09:10:43;;;;;;;13.43;3.85;;;23.80;91.50;;;;;;4195198;28;20049;-60
2023/09/27 09:12:47;;;;;;;13.75;4.03;;;23.80;91.80;;;;;;4194371;28;20094;-60
2023/09/27 09:14:54;;;;;;;9.25;3.47;;;23.80;91.90;;;;;;4195356;28;20101;-59
2023/09/27 09:16:55;;;;;;;8.57;3.47;;;23.60;91.90;;;;;;4194693;28;20082;-60
2023/09/27 09:18:57;;;;;;;9.73;3.83;;;23.50;91.90;;;;;;4196527;28;20033;-59
2023/09/27 09:21:08;;;;;;;7.85;3.45;;;23.50;92.00;;;;;;4195290;28;20074;-59
2023/09/27 09:23:12;;;;;;;5.45;2.97;;;23.50;92.00;;;;;;4195613;28;20041;-59
2023/09/27 09:25:13;;;;;;;7.00;3.70;;;23.80;92.00;;;;;;4194121;28;20048;-59
2023/09/27 09:27:15;;;;;;;10.57;3.15;;;24.00;91.90;;;;;;4196101;28;20411;-59
2023/09/27 09:29:18;;;;;;;8.55;3.15;;;24.00;91.90;;;;;;4194132;28;20497;-59
2023/09/27 09:31:27;;;;;;;7.43;3.30;;;24.20;91.90;;;;;;4196233;28;20090;-60
2023/09/27 09:33:28;;;;;;;7.88;3.78;;;24.30;91.80;;;;;;4195180;28;20032;-60
2023/09/27 09:35:31;;;;;;;8.18;3.88;;;24.40;91.70;;;;;;4196125;28;20384;-61
2023/09/27 09:37:33;;;;;;;14.10;3.70;;;24.60;91.60;;;;;;4194202;28;20032;-58
2023/09/27 09:39:34;;;;;;;9.30;3.42;;;24.50;91.40;;;;;;4195110;28;20032;-61
2023/09/27 09:41:46;;;;;;;6.00;3.05;;;24.40;91.50;;;;;;4193726;28;20041;-61
2023/09/27 09:43:47;;;;;;;6.88;3.10;;;24.50;91.30;;;;;;4195530;28;20044;-63
2023/09/27 09:45:49;;;;;;;8.52;3.10;;;24.50;91.40;;;;;;4193594;28;20032;-61
2023/09/27 09:47:51;;;;;;;7.60;3.55;;;24.40;91.30;;;;;;4195189;28;20490;-63
2023/09/27 09:49:53;;;;;;;9.68;3.22;;;24.30;91.20;;;;;;4194081;28;20049;-61
2023/09/27 09:51:57;;;;;;;11.50;3.47;;;24.30;91.10;;;;;;4195082;28;20083;-61
2023/09/27 09:53:59;;;;;;;14.60;3.15;;;24.30;91.00;;;;;;4194896;28;20105;-60
2023/09/27 09:56:02;;;;;;;5.57;3.40;;;24.30;91.00;;;;;;4194850;28;20028;-60
2023/09/27 09:58:35;;;;;;;9.52;3.35;;;24.20;90.90;;;;;;4194888;28;20028;-60
2023/09/27 10:00:42;;;;;;;5.70;3.15;;;24.20;90.40;;;;;;4194371;28;20070;-60
2023/09/27 10:02:53;;;;;;;4.78;2.85;;;24.20;90.60;;;;;;4193830;28;20036;-59
2023/09/27 10:04:59;;;;;;;6.97;3.50;;;24.20;90.60;;;;;;4194823;28;20024;-59
2023/09/27 10:07:02;;;;;;;14.73;3.22;;;24.20;90.80;;;;;;4194085;28;20044;-59
2023/09/27 10:09:09;;;;;;;13.65;3.38;;;24.20;90.60;;;;;;4193259;28;20152;-59
2023/09/27 10:11:10;;;;;;;14.70;3.55;;;24.20;90.50;;;;;;4194382;28;20086;-59
2023/09/27 10:13:13;;;;;;;5.07;3.10;;;24.30;90.60;;;;;;4193353;28;20106;-59
2023/09/27 10:15:25;;;;;;;9.63;2.90;;;24.50;90.60;;;;;;4195141;28;20077;-60
2023/09/27 10:17:26;;;;;;;5.25;2.80;;;24.80;89.10;;;;;;4193613;28;20102;-59
2023/09/27 10:19:28;;;;;;;3.80;2.47;;;25.00;90.00;;;;;;4194577;28;20090;-60
2023/09/27 10:21:29;;;;;;;7.25;3.03;;;25.00;89.60;;;;;;4194095;28;20477;-59
2023/09/27 10:23:53;;;;;;;5.65;2.92;;;25.10;89.60;;;;;;4193930;28;20454;-59
2023/09/27 10:25:54;;;;;;;9.60;2.80;;;24.90;87.10;;;;;;4179939;28;20052;-58
2023/09/27 10:28:04;;;;;;;6.25;3.40;;;24.80;89.00;;;;;;4194290;28;20048;-60
2023/09/27 10:30:05;;;;;;;4.10;2.80;;;24.60;88.20;;;;;;4193132;28;20117;-60
2023/09/27 10:32:16;;;;;;;8.10;3.00;;;24.70;88.70;;;;;;4194952;28;20024;-60